sensor_id;sensor_type;location;lat;lon;timestamp;pressure;altitude;pressure_sealevel;temperature;humidity
20987;BME280;10652;50.306;8.570;2023-04-22T00:02:34;97337.34;;;10.14;76.90
20987;BME280;10652;50.306;8.570;2023-04-22T00:06:38;97327.50;;;10.18;76.31
20987;BME280;10652;50.306;8.570;2023-04-22T00:10:40;97324.81;;;10.19;76.54
20987;BME280;10652;50.306;8.570;2023-04-22T00:14:42;97323.69;;;10.23;76.36
20987;BME280;10652;50.306;8.570;2023-04-22T00:18:44;97324.72;;;10.21;76.74
20987;BME280;10652;50.306;8.570;2023-04-22T00:22:46;97318.69;;;10.19;77.20
20987;BME280;10652;50.306;8.570;2023-04-22T00:26:49;97323.69;;;10.23;77.70
20987;BME280;10652;50.306;8.570;2023-04-22T00:30:51;97321.31;;;10.34;77.27
20987;BME280;10652;50.306;8.570;2023-04-22T00:34:53;97319.84;;;10.44;76.89
20987;BME280;10652;50.306;8.570;2023-04-22T00:38:55;97311.44;;;10.54;76.53
20987;BME280;10652;50.306;8.570;2023-04-22T00:42:58;97315.19;;;10.64;76.13
20987;BME280;10652;50.306;8.570;2023-04-22T00:47:01;97313.78;;;10.72;75.71
20987;BME280;10652;50.306;8.570;2023-04-22T00:51:04;97315.13;;;10.79;75.50
20987;BME280;10652;50.306;8.570;2023-04-22T00:55:07;97315.81;;;10.83;75.18
20987;BME280;10652;50.306;8.570;2023-04-22T00:59:09;97318.16;;;10.87;75.13
20987;BME280;10652;50.306;8.570;2023-04-22T01:03:11;97308.22;;;10.92;75.15
20987;BME280;10652;50.306;8.570;2023-04-22T01:07:14;97308.78;;;10.98;74.98
20987;BME280;10652;50.306;8.570;2023-04-22T01:11:16;97306.88;;;11.00;75.12
20987;BME280;10652;50.306;8.570;2023-04-22T01:15:18;97310.94;;;11.05;75.72
20987;BME280;10652;50.306;8.570;2023-04-22T01:19:21;97316.84;;;11.09;75.09
20987;BME280;10652;50.306;8.570;2023-04-22T01:23:24;97301.78;;;11.12;74.63
20987;BME280;10652;50.306;8.570;2023-04-22T01:27:26;97300.84;;;11.13;74.42
20987;BME280;10652;50.306;8.570;2023-04-22T01:31:29;97313.81;;;11.16;73.83
20987;BME280;10652;50.306;8.570;2023-04-22T01:35:31;97307.50;;;11.19;73.37
20987;BME280;10652;50.306;8.570;2023-04-22T01:39:38;97321.50;;;11.19;72.78
20987;BME280;10652;50.306;8.570;2023-04-22T01:43:41;97316.16;;;11.21;72.69
20987;BME280;10652;50.306;8.570;2023-04-22T01:47:43;97329.19;;;11.22;72.10
20987;BME280;10652;50.306;8.570;2023-04-22T01:51:45;97321.28;;;11.22;71.71
20987;BME280;10652;50.306;8.570;2023-04-22T01:55:48;97312.47;;;11.23;71.69
20987;BME280;10652;50.306;8.570;2023-04-22T01:59:50;97329.03;;;11.25;71.33
20987;BME280;10652;50.306;8.570;2023-04-22T02:03:52;97326.38;;;11.25;71.28
20987;BME280;10652;50.306;8.570;2023-04-22T02:07:54;97333.50;;;11.23;71.22
20987;BME280;10652;50.306;8.570;2023-04-22T02:11:56;97324.13;;;11.19;71.36
20987;BME280;10652;50.306;8.570;2023-04-22T02:15:58;97332.09;;;11.18;71.85
20987;BME280;10652;50.306;8.570;2023-04-22T02:20:01;97330.72;;;11.12;71.94
20987;BME280;10652;50.306;8.570;2023-04-22T02:24:04;97330.09;;;11.07;72.56
20987;BME280;10652;50.306;8.570;2023-04-22T02:28:06;97330.53;;;11.00;73.39
20987;BME280;10652;50.306;8.570;2023-04-22T02:32:08;97333.25;;;10.84;74.40
20987;BME280;10652;50.306;8.570;2023-04-22T02:36:11;97323.66;;;10.69;75.72
20987;BME280;10652;50.306;8.570;2023-04-22T02:40:13;97322.41;;;10.60;76.50
20987;BME280;10652;50.306;8.570;2023-04-22T02:44:15;97316.22;;;10.61;76.74
20987;BME280;10652;50.306;8.570;2023-04-22T02:48:17;97327.47;;;10.63;76.90
20987;BME280;10652;50.306;8.570;2023-04-22T02:52:19;97330.16;;;10.47;77.44
20987;BME280;10652;50.306;8.570;2023-04-22T02:56:21;97320.78;;;10.43;78.43
20987;BME280;10652;50.306;8.570;2023-04-22T03:00:23;97326.09;;;10.42;79.23
20987;BME280;10652;50.306;8.570;2023-04-22T03:04:26;97321.72;;;10.42;79.38
20987;BME280;10652;50.306;8.570;2023-04-22T03:08:28;97328.47;;;10.46;79.27
20987;BME280;10652;50.306;8.570;2023-04-22T03:12:30;97323.03;;;10.49;78.54
20987;BME280;10652;50.306;8.570;2023-04-22T03:16:33;97319.84;;;10.44;79.17
20987;BME280;10652;50.306;8.570;2023-04-22T03:20:38;97316.25;;;10.45;78.94
20987;BME280;10652;50.306;8.570;2023-04-22T03:24:41;97331.69;;;10.52;78.51
20987;BME280;10652;50.306;8.570;2023-04-22T03:28:44;97324.72;;;10.51;78.11
20987;BME280;10652;50.306;8.570;2023-04-22T03:32:46;97323.41;;;10.43;78.01
20987;BME280;10652;50.306;8.570;2023-04-22T03:36:59;97323.94;;;10.34;78.25
20987;BME280;10652;50.306;8.570;2023-04-22T03:41:01;97330.31;;;10.30;78.86
20987;BME280;10652;50.306;8.570;2023-04-22T03:45:14;97330.38;;;10.29;79.37
20987;BME280;10652;50.306;8.570;2023-04-22T03:49:20;97327.16;;;10.24;79.47
20987;BME280;10652;50.306;8.570;2023-04-22T03:53:23;97332.59;;;10.21;80.31
20987;BME280;10652;50.306;8.570;2023-04-22T03:57:25;97333.44;;;10.21;80.46
20987;BME280;10652;50.306;8.570;2023-04-22T04:01:28;97338.50;;;10.24;80.64
20987;BME280;10652;50.306;8.570;2023-04-22T04:05:34;97338.19;;;10.30;80.35
20987;BME280;10652;50.306;8.570;2023-04-22T04:09:37;97336.28;;;10.32;79.73
20987;BME280;10652;50.306;8.570;2023-04-22T04:13:40;97338.91;;;10.32;79.79
20987;BME280;10652;50.306;8.570;2023-04-22T04:17:59;97334.69;;;10.30;79.69
20987;BME280;10652;50.306;8.570;2023-04-22T04:22:04;97337.41;;;10.28;79.68
20987;BME280;10652;50.306;8.570;2023-04-22T04:26:11;97335.69;;;10.27;79.65
20987;BME280;10652;50.306;8.570;2023-04-22T04:30:19;97322.94;;;10.21;80.02
20987;BME280;10652;50.306;8.570;2023-04-22T04:34:27;97330.06;;;10.19;80.29
20987;BME280;10652;50.306;8.570;2023-04-22T04:38:30;97325.66;;;10.20;80.60
20987;BME280;10652;50.306;8.570;2023-04-22T04:42:33;97322.75;;;10.24;80.44
20987;BME280;10652;50.306;8.570;2023-04-22T04:46:39;97323.34;;;10.29;80.14
20987;BME280;10652;50.306;8.570;2023-04-22T04:50:43;97311.66;;;10.35;79.54
20987;BME280;10652;50.306;8.570;2023-04-22T04:54:45;97310.44;;;10.40;78.75
20987;BME280;10652;50.306;8.570;2023-04-22T04:58:48;97317.13;;;10.46;78.04
20987;BME280;10652;50.306;8.570;2023-04-22T05:02:56;97320.41;;;10.49;77.60
20987;BME280;10652;50.306;8.570;2023-04-22T05:06:59;97312.75;;;10.61;78.50
20987;BME280;10652;50.306;8.570;2023-04-22T05:11:03;97311.28;;;10.71;76.77
20987;BME280;10652;50.306;8.570;2023-04-22T05:15:05;97317.19;;;10.74;76.04
20987;BME280;10652;50.306;8.570;2023-04-22T05:19:08;97312.59;;;10.78;75.60
20987;BME280;10652;50.306;8.570;2023-04-22T05:23:10;97316.72;;;10.82;75.37
20987;BME280;10652;50.306;8.570;2023-04-22T05:27:12;97320.84;;;10.86;74.85
20987;BME280;10652;50.306;8.570;2023-04-22T05:31:14;97318.81;;;10.91;74.68
20987;BME280;10652;50.306;8.570;2023-04-22T05:35:17;97322.00;;;10.96;74.71
20987;BME280;10652;50.306;8.570;2023-04-22T05:39:19;97314.78;;;11.00;74.48
20987;BME280;10652;50.306;8.570;2023-04-22T05:43:23;97326.72;;;11.05;73.87
20987;BME280;10652;50.306;8.570;2023-04-22T05:47:32;97335.97;;;11.12;73.84
20987;BME280;10652;50.306;8.570;2023-04-22T05:51:34;97343.47;;;11.18;73.50
20987;BME280;10652;50.306;8.570;2023-04-22T05:55:37;97334.16;;;11.27;73.91
20987;BME280;10652;50.306;8.570;2023-04-22T05:59:41;97343.84;;;11.41;73.13
20987;BME280;10652;50.306;8.570;2023-04-22T06:03:44;97338.00;;;11.64;72.61
20987;BME280;10652;50.306;8.570;2023-04-22T06:07:47;97342.47;;;11.90;71.86
20987;BME280;10652;50.306;8.570;2023-04-22T06:11:49;97336.56;;;12.13;70.34
20987;BME280;10652;50.306;8.570;2023-04-22T06:15:51;97328.91;;;12.37;70.17
20987;BME280;10652;50.306;8.570;2023-04-22T06:19:53;97340.47;;;12.61;69.19
20987;BME280;10652;50.306;8.570;2023-04-22T06:23:55;97335.97;;;12.89;67.72
20987;BME280;10652;50.306;8.570;2023-04-22T06:27:58;97337.16;;;13.10;66.53
20987;BME280;10652;50.306;8.570;2023-04-22T06:32:00;97338.19;;;13.33;65.23
20987;BME280;10652;50.306;8.570;2023-04-22T06:36:05;97325.31;;;13.66;64.15
20987;BME280;10652;50.306;8.570;2023-04-22T06:40:09;97318.72;;;13.84;62.89
20987;BME280;10652;50.306;8.570;2023-04-22T06:44:30;97320.69;;;14.30;62.03
20987;BME280;10652;50.306;8.570;2023-04-22T06:49:02;97314.47;;;15.23;61.24
20987;BME280;10652;50.306;8.570;2023-04-22T06:53:21;97323.41;;;15.77;57.43
20987;BME280;10652;50.306;8.570;2023-04-22T06:57:24;97315.34;;;16.33;55.75
20987;BME280;10652;50.306;8.570;2023-04-22T07:01:26;97311.53;;;17.62;52.98
20987;BME280;10652;50.306;8.570;2023-04-22T07:05:28;97314.44;;;17.59;50.98
20987;BME280;10652;50.306;8.570;2023-04-22T07:09:32;97313.13;;;16.60;51.37
20987;BME280;10652;50.306;8.570;2023-04-22T07:13:35;97311.38;;;15.85;52.72
20987;BME280;10652;50.306;8.570;2023-04-22T07:17:37;97315.34;;;15.34;54.13
20987;BME280;10652;50.306;8.570;2023-04-22T07:21:39;97312.91;;;15.09;55.63
20987;BME280;10652;50.306;8.570;2023-04-22T07:25:41;97310.09;;;15.00;56.17
20987;BME280;10652;50.306;8.570;2023-04-22T07:29:43;97314.81;;;14.96;56.82
20987;BME280;10652;50.306;8.570;2023-04-22T07:33:45;97322.63;;;14.98;57.29
20987;BME280;10652;50.306;8.570;2023-04-22T07:37:47;97324.31;;;14.99;56.87
20987;BME280;10652;50.306;8.570;2023-04-22T07:41:49;97323.34;;;15.00;57.18
20987;BME280;10652;50.306;8.570;2023-04-22T07:45:52;97325.97;;;15.00;57.26
20987;BME280;10652;50.306;8.570;2023-04-22T07:49:54;97329.97;;;15.05;57.43
20987;BME280;10652;50.306;8.570;2023-04-22T07:53:56;97319.78;;;15.12;57.27
20987;BME280;10652;50.306;8.570;2023-04-22T07:57:58;97314.47;;;15.12;57.01
20987;BME280;10652;50.306;8.570;2023-04-22T08:02:07;97316.16;;;15.24;57.65
20987;BME280;10652;50.306;8.570;2023-04-22T08:06:09;97311.25;;;15.42;58.19
20987;BME280;10652;50.306;8.570;2023-04-22T08:10:11;97315.47;;;15.44;58.52
20987;BME280;10652;50.306;8.570;2023-04-22T08:14:13;97317.63;;;15.50;58.74
20987;BME280;10652;50.306;8.570;2023-04-22T08:18:15;97307.06;;;15.61;58.99
20987;BME280;10652;50.306;8.570;2023-04-22T08:22:17;97309.69;;;15.72;57.44
20987;BME280;10652;50.306;8.570;2023-04-22T08:26:20;97300.78;;;15.85;57.36
20987;BME280;10652;50.306;8.570;2023-04-22T08:30:22;97300.53;;;15.99;57.53
20987;BME280;10652;50.306;8.570;2023-04-22T08:34:24;97294.72;;;16.05;56.25
20987;BME280;10652;50.306;8.570;2023-04-22T08:38:28;97296.88;;;16.11;56.25
20987;BME280;10652;50.306;8.570;2023-04-22T08:42:30;97292.28;;;16.13;56.31
20987;BME280;10652;50.306;8.570;2023-04-22T08:46:33;97282.88;;;16.20;55.78
20987;BME280;10652;50.306;8.570;2023-04-22T08:50:36;97283.81;;;16.30;56.27
20987;BME280;10652;50.306;8.570;2023-04-22T08:54:40;97284.44;;;16.54;56.56
20987;BME280;10652;50.306;8.570;2023-04-22T08:58:42;97283.88;;;16.72;55.58
20987;BME280;10652;50.306;8.570;2023-04-22T09:02:45;97279.44;;;16.93;54.47
20987;BME280;10652;50.306;8.570;2023-04-22T09:06:47;97288.03;;;17.06;53.71
20987;BME280;10652;50.306;8.570;2023-04-22T09:10:49;97282.44;;;17.09;53.57
20987;BME280;10652;50.306;8.570;2023-04-22T09:14:52;97284.41;;;17.07;53.05
20987;BME280;10652;50.306;8.570;2023-04-22T09:18:55;97280.69;;;17.19;53.21
20987;BME280;10652;50.306;8.570;2023-04-22T09:23:02;97280.41;;;17.22;52.35
20987;BME280;10652;50.306;8.570;2023-04-22T09:27:06;97286.44;;;17.24;52.64
20987;BME280;10652;50.306;8.570;2023-04-22T09:31:13;97281.84;;;17.26;52.26
20987;BME280;10652;50.306;8.570;2023-04-22T09:35:15;97294.88;;;17.29;52.83
20987;BME280;10652;50.306;8.570;2023-04-22T09:39:17;97287.34;;;17.34;52.31
20987;BME280;10652;50.306;8.570;2023-04-22T09:43:19;97296.44;;;17.41;52.42
20987;BME280;10652;50.306;8.570;2023-04-22T09:47:21;97293.16;;;17.49;52.03
20987;BME280;10652;50.306;8.570;2023-04-22T09:51:27;97296.03;;;17.67;52.38
20987;BME280;10652;50.306;8.570;2023-04-22T09:55:32;97303.38;;;17.84;52.34
20987;BME280;10652;50.306;8.570;2023-04-22T09:59:34;97309.81;;;17.91;52.69
20987;BME280;10652;50.306;8.570;2023-04-22T10:03:36;97298.66;;;17.97;52.24
20987;BME280;10652;50.306;8.570;2023-04-22T10:07:38;97295.31;;;18.14;52.24
20987;BME280;10652;50.306;8.570;2023-04-22T10:11:40;97300.22;;;18.19;51.72
20987;BME280;10652;50.306;8.570;2023-04-22T10:15:54;97291.00;;;18.23;51.80
20987;BME280;10652;50.306;8.570;2023-04-22T10:19:59;97287.06;;;18.27;51.07
20987;BME280;10652;50.306;8.570;2023-04-22T10:24:05;97274.25;;;18.32;50.79
20987;BME280;10652;50.306;8.570;2023-04-22T10:28:09;97275.94;;;18.42;51.24
20987;BME280;10652;50.306;8.570;2023-04-22T10:36:20;97270.31;;;18.65;50.94
20987;BME280;10652;50.306;8.570;2023-04-22T10:40:22;97279.41;;;18.72;50.31
20987;BME280;10652;50.306;8.570;2023-04-22T10:44:27;97273.38;;;18.89;50.76
20987;BME280;10652;50.306;8.570;2023-04-22T10:48:49;97261.91;;;18.89;49.17
20987;BME280;10652;50.306;8.570;2023-04-22T10:52:59;97259.94;;;18.81;49.54
20987;BME280;10652;50.306;8.570;2023-04-22T10:57:09;97254.34;;;18.74;49.16
20987;BME280;10652;50.306;8.570;2023-04-22T11:01:14;97253.81;;;18.71;49.56
20987;BME280;10652;50.306;8.570;2023-04-22T11:05:18;97252.53;;;18.84;49.08
20987;BME280;10652;50.306;8.570;2023-04-22T11:09:22;97240.84;;;18.95;49.59
20987;BME280;10652;50.306;8.570;2023-04-22T11:13:25;97245.31;;;19.04;48.59
20987;BME280;10652;50.306;8.570;2023-04-22T11:17:27;97237.06;;;19.07;49.15
20987;BME280;10652;50.306;8.570;2023-04-22T11:21:30;97242.09;;;19.10;47.95
20987;BME280;10652;50.306;8.570;2023-04-22T11:25:32;97236.06;;;19.08;47.99
20987;BME280;10652;50.306;8.570;2023-04-22T11:29:34;97233.56;;;19.16;48.14
20987;BME280;10652;50.306;8.570;2023-04-22T11:33:36;97234.06;;;19.29;46.94
20987;BME280;10652;50.306;8.570;2023-04-22T11:41:45;97231.56;;;19.09;46.59
20987;BME280;10652;50.306;8.570;2023-04-22T11:45:47;97229.75;;;19.09;49.02
20987;BME280;10652;50.306;8.570;2023-04-22T11:49:56;97223.69;;;19.26;49.01
20987;BME280;10652;50.306;8.570;2023-04-22T11:53:58;97210.88;;;19.40;48.03
20987;BME280;10652;50.306;8.570;2023-04-22T11:58:09;97211.72;;;19.40;46.58
20987;BME280;10652;50.306;8.570;2023-04-22T12:02:12;97203.28;;;19.45;46.43
20987;BME280;10652;50.306;8.570;2023-04-22T12:06:15;97198.75;;;19.55;46.43
20987;BME280;10652;50.306;8.570;2023-04-22T12:10:17;97192.22;;;19.67;44.40
20987;BME280;10652;50.306;8.570;2023-04-22T12:14:19;97193.31;;;19.74;44.96
20987;BME280;10652;50.306;8.570;2023-04-22T12:18:51;97191.66;;;19.91;44.40
20987;BME280;10652;50.306;8.570;2023-04-22T12:22:53;97185.00;;;20.04;43.85
20987;BME280;10652;50.306;8.570;2023-04-22T12:26:55;97190.72;;;20.09;43.13
20987;BME280;10652;50.306;8.570;2023-04-22T12:30:58;97187.06;;;20.10;43.15
20987;BME280;10652;50.306;8.570;2023-04-22T12:35:00;97191.56;;;20.10;43.13
20987;BME280;10652;50.306;8.570;2023-04-22T12:39:02;97186.28;;;20.00;43.24
20987;BME280;10652;50.306;8.570;2023-04-22T12:43:05;97180.88;;;20.10;44.31
20987;BME280;10652;50.306;8.570;2023-04-22T12:47:07;97190.31;;;20.40;43.48
20987;BME280;10652;50.306;8.570;2023-04-22T12:51:10;97185.50;;;20.61;41.78
20987;BME280;10652;50.306;8.570;2023-04-22T12:55:12;97184.13;;;20.75;42.03
20987;BME280;10652;50.306;8.570;2023-04-22T12:59:14;97175.69;;;20.87;40.81
20987;BME280;10652;50.306;8.570;2023-04-22T13:03:16;97190.25;;;20.93;40.07
20987;BME280;10652;50.306;8.570;2023-04-22T13:07:19;97173.72;;;20.89;39.43
20987;BME280;10652;50.306;8.570;2023-04-22T13:11:21;97182.38;;;20.91;39.52
20987;BME280;10652;50.306;8.570;2023-04-22T13:15:25;97183.19;;;20.84;39.54
20987;BME280;10652;50.306;8.570;2023-04-22T13:19:27;97186.53;;;20.68;39.48
20987;BME280;10652;50.306;8.570;2023-04-22T13:23:30;97185.59;;;20.51;40.16
20987;BME280;10652;50.306;8.570;2023-04-22T13:27:33;97170.81;;;20.39;40.97
20987;BME280;10652;50.306;8.570;2023-04-22T13:31:36;97178.88;;;20.47;41.16
20987;BME280;10652;50.306;8.570;2023-04-22T13:35:39;97173.53;;;20.47;41.01
20987;BME280;10652;50.306;8.570;2023-04-22T13:39:41;97180.56;;;20.31;41.04
20987;BME280;10652;50.306;8.570;2023-04-22T13:43:43;97173.03;;;20.08;41.14
20987;BME280;10652;50.306;8.570;2023-04-22T13:47:45;97176.56;;;19.82;41.35
20987;BME280;10652;50.306;8.570;2023-04-22T13:51:48;97160.78;;;19.53;41.69
20987;BME280;10652;50.306;8.570;2023-04-22T13:55:50;97170.16;;;19.29;42.59
20987;BME280;10652;50.306;8.570;2023-04-22T13:59:52;97168.53;;;19.09;42.87
20987;BME280;10652;50.306;8.570;2023-04-22T14:03:54;97170.69;;;18.86;43.44
20987;BME280;10652;50.306;8.570;2023-04-22T14:07:57;97159.97;;;18.69;44.01
20987;BME280;10652;50.306;8.570;2023-04-22T14:12:00;97167.44;;;18.56;44.46
20987;BME280;10652;50.306;8.570;2023-04-22T14:16:04;97166.34;;;18.49;44.78
20987;BME280;10652;50.306;8.570;2023-04-22T14:20:11;97169.00;;;18.39;44.67
20987;BME280;10652;50.306;8.570;2023-04-22T14:24:13;97168.69;;;18.23;44.28
20987;BME280;10652;50.306;8.570;2023-04-22T14:28:15;97165.78;;;18.16;45.13
20987;BME280;10652;50.306;8.570;2023-04-22T14:32:20;97173.31;;;18.11;44.96
20987;BME280;10652;50.306;8.570;2023-04-22T14:36:22;97183.53;;;18.06;44.70
20987;BME280;10652;50.306;8.570;2023-04-22T14:40:24;97180.44;;;18.01;43.93
20987;BME280;10652;50.306;8.570;2023-04-22T14:44:29;97184.34;;;17.87;44.08
20987;BME280;10652;50.306;8.570;2023-04-22T14:48:31;97187.97;;;17.77;44.57
20987;BME280;10652;50.306;8.570;2023-04-22T14:52:36;97187.13;;;17.67;43.97
20987;BME280;10652;50.306;8.570;2023-04-22T14:56:38;97181.53;;;17.60;43.94
20987;BME280;10652;50.306;8.570;2023-04-22T15:00:40;97177.88;;;17.51;44.27
20987;BME280;10652;50.306;8.570;2023-04-22T15:04:42;97195.19;;;17.46;44.45
20987;BME280;10652;50.306;8.570;2023-04-22T15:08:44;97199.88;;;17.42;44.95
20987;BME280;10652;50.306;8.570;2023-04-22T15:12:46;97190.94;;;17.34;45.25
20987;BME280;10652;50.306;8.570;2023-04-22T15:16:48;97189.47;;;17.20;45.91
20987;BME280;10652;50.306;8.570;2023-04-22T15:20:51;97173.81;;;17.17;46.16
20987;BME280;10652;50.306;8.570;2023-04-22T15:24:53;97175.00;;;17.34;46.51
20987;BME280;10652;50.306;8.570;2023-04-22T15:28:55;97165.72;;;17.59;46.48
20987;BME280;10652;50.306;8.570;2023-04-22T15:32:57;97163.09;;;17.78;45.64
20987;BME280;10652;50.306;8.570;2023-04-22T15:36:59;97157.66;;;17.89;45.49
20987;BME280;10652;50.306;8.570;2023-04-22T15:41:01;97164.22;;;18.04;45.68
20987;BME280;10652;50.306;8.570;2023-04-22T15:45:04;97153.16;;;18.18;45.31
20987;BME280;10652;50.306;8.570;2023-04-22T15:49:06;97156.66;;;18.28;45.49
20987;BME280;10652;50.306;8.570;2023-04-22T15:53:08;97151.91;;;18.32;46.57
20987;BME280;10652;50.306;8.570;2023-04-22T15:57:10;97150.50;;;18.18;46.09
20987;BME280;10652;50.306;8.570;2023-04-22T16:01:12;97164.38;;;18.03;46.50
20987;BME280;10652;50.306;8.570;2023-04-22T16:05:21;97175.13;;;17.82;47.20
20987;BME280;10652;50.306;8.570;2023-04-22T16:09:25;97178.31;;;17.57;47.20
20987;BME280;10652;50.306;8.570;2023-04-22T16:13:27;97175.56;;;17.37;48.03
20987;BME280;10652;50.306;8.570;2023-04-22T16:17:29;97169.38;;;17.27;48.38
20987;BME280;10652;50.306;8.570;2023-04-22T16:21:31;97165.59;;;17.20;48.95
20987;BME280;10652;50.306;8.570;2023-04-22T16:25:33;97182.03;;;17.14;49.60
20987;BME280;10652;50.306;8.570;2023-04-22T16:29:36;97168.72;;;17.04;49.37
20987;BME280;10652;50.306;8.570;2023-04-22T16:33:38;97170.09;;;16.99;49.84
20987;BME280;10652;50.306;8.570;2023-04-22T16:37:40;97172.19;;;16.95;50.17
20987;BME280;10652;50.306;8.570;2023-04-22T16:41:42;97164.06;;;16.87;50.29
20987;BME280;10652;50.306;8.570;2023-04-22T16:45:44;97167.50;;;16.78;50.70
20987;BME280;10652;50.306;8.570;2023-04-22T16:49:46;97168.81;;;16.63;51.12
20987;BME280;10652;50.306;8.570;2023-04-22T16:53:48;97158.59;;;16.58;51.64
20987;BME280;10652;50.306;8.570;2023-04-22T16:57:50;97165.50;;;16.50;51.83
20987;BME280;10652;50.306;8.570;2023-04-22T17:01:53;97165.19;;;16.43;52.40
20987;BME280;10652;50.306;8.570;2023-04-22T17:05:55;97156.06;;;16.36;52.67
20987;BME280;10652;50.306;8.570;2023-04-22T17:09:57;97154.63;;;16.32;52.76
20987;BME280;10652;50.306;8.570;2023-04-22T17:13:59;97153.78;;;16.32;53.11
20987;BME280;10652;50.306;8.570;2023-04-22T17:18:02;97163.09;;;16.26;53.49
20987;BME280;10652;50.306;8.570;2023-04-22T17:22:06;97157.22;;;16.22;53.78
20987;BME280;10652;50.306;8.570;2023-04-22T17:26:08;97155.91;;;16.17;54.13
20987;BME280;10652;50.306;8.570;2023-04-22T17:30:11;97158.13;;;16.12;53.93
20987;BME280;10652;50.306;8.570;2023-04-22T17:34:13;97160.31;;;16.07;53.12
20987;BME280;10652;50.306;8.570;2023-04-22T17:38:15;97152.19;;;15.99;53.38
20987;BME280;10652;50.306;8.570;2023-04-22T17:42:17;97157.13;;;15.92;54.04
20987;BME280;10652;50.306;8.570;2023-04-22T17:46:19;97161.69;;;15.90;54.93
20987;BME280;10652;50.306;8.570;2023-04-22T17:50:22;97167.38;;;15.86;55.55
20987;BME280;10652;50.306;8.570;2023-04-22T17:54:24;97164.28;;;15.81;55.91
20987;BME280;10652;50.306;8.570;2023-04-22T17:58:26;97166.22;;;15.78;55.80
20987;BME280;10652;50.306;8.570;2023-04-22T18:02:28;97172.47;;;15.77;56.02
20987;BME280;10652;50.306;8.570;2023-04-22T18:06:31;97173.44;;;15.76;55.98
20987;BME280;10652;50.306;8.570;2023-04-22T18:10:33;97181.16;;;15.68;56.05
20987;BME280;10652;50.306;8.570;2023-04-22T18:14:35;97187.78;;;15.63;55.87
20987;BME280;10652;50.306;8.570;2023-04-22T18:18:37;97186.47;;;15.57;55.85
20987;BME280;10652;50.306;8.570;2023-04-22T18:22:40;97184.31;;;15.51;55.95
20987;BME280;10652;50.306;8.570;2023-04-22T18:26:42;97189.38;;;15.43;56.13
20987;BME280;10652;50.306;8.570;2023-04-22T18:30:47;97191.19;;;15.43;56.70
20987;BME280;10652;50.306;8.570;2023-04-22T18:34:49;97193.94;;;15.41;56.67
20987;BME280;10652;50.306;8.570;2023-04-22T18:38:51;97196.25;;;15.34;56.94
20987;BME280;10652;50.306;8.570;2023-04-22T18:42:54;97203.25;;;15.24;57.00
20987;BME280;10652;50.306;8.570;2023-04-22T18:46:56;97200.97;;;15.20;57.03
20987;BME280;10652;50.306;8.570;2023-04-22T18:50:58;97203.84;;;15.17;57.51
20987;BME280;10652;50.306;8.570;2023-04-22T18:55:01;97211.16;;;15.13;57.56
20987;BME280;10652;50.306;8.570;2023-04-22T18:59:03;97214.16;;;15.09;58.10
20987;BME280;10652;50.306;8.570;2023-04-22T19:03:05;97214.66;;;15.03;58.76
20987;BME280;10652;50.306;8.570;2023-04-22T19:07:08;97219.97;;;15.03;59.69
20987;BME280;10652;50.306;8.570;2023-04-22T19:11:10;97229.31;;;14.96;60.99
20987;BME280;10652;50.306;8.570;2023-04-22T19:15:12;97228.97;;;14.89;63.11
20987;BME280;10652;50.306;8.570;2023-04-22T19:19:14;97242.50;;;14.73;65.75
20987;BME280;10652;50.306;8.570;2023-04-22T19:23:17;97227.47;;;14.63;67.37
20987;BME280;10652;50.306;8.570;2023-04-22T19:27:19;97234.56;;;14.62;69.47
20987;BME280;10652;50.306;8.570;2023-04-22T19:31:21;97232.75;;;14.63;70.45
20987;BME280;10652;50.306;8.570;2023-04-22T19:35:23;97231.94;;;14.62;71.47
20987;BME280;10652;50.306;8.570;2023-04-22T19:39:28;97233.59;;;14.63;72.51
20987;BME280;10652;50.306;8.570;2023-04-22T19:43:31;97231.69;;;14.65;72.96
20987;BME280;10652;50.306;8.570;2023-04-22T19:47:33;97242.16;;;14.67;73.49
20987;BME280;10652;50.306;8.570;2023-04-22T19:51:37;97237.94;;;14.64;73.11
20987;BME280;10652;50.306;8.570;2023-04-22T19:55:41;97238.66;;;14.66;73.66
20987;BME280;10652;50.306;8.570;2023-04-22T19:59:44;97240.56;;;14.64;73.92
20987;BME280;10652;50.306;8.570;2023-04-22T20:03:48;97236.97;;;14.65;73.73
20987;BME280;10652;50.306;8.570;2023-04-22T20:07:51;97226.34;;;14.54;73.64
20987;BME280;10652;50.306;8.570;2023-04-22T20:11:53;97230.06;;;14.52;74.58
20987;BME280;10652;50.306;8.570;2023-04-22T20:15:56;97232.59;;;14.53;73.67
20987;BME280;10652;50.306;8.570;2023-04-22T20:20:00;97225.44;;;14.31;72.75
20987;BME280;10652;50.306;8.570;2023-04-22T20:24:06;97235.97;;;14.20;73.35
20987;BME280;10652;50.306;8.570;2023-04-22T20:28:08;97231.59;;;14.08;74.02
20987;BME280;10652;50.306;8.570;2023-04-22T20:32:11;97241.78;;;14.01;74.67
20987;BME280;10652;50.306;8.570;2023-04-22T20:36:14;97240.41;;;13.96;75.13
20987;BME280;10652;50.306;8.570;2023-04-22T20:40:17;97251.72;;;13.98;75.50
20987;BME280;10652;50.306;8.570;2023-04-22T20:44:21;97246.25;;;13.88;75.62
20987;BME280;10652;50.306;8.570;2023-04-22T20:48:23;97249.56;;;13.79;76.13
20987;BME280;10652;50.306;8.570;2023-04-22T20:52:25;97243.03;;;13.72;77.18
20987;BME280;10652;50.306;8.570;2023-04-22T20:56:27;97248.44;;;13.71;77.73
20987;BME280;10652;50.306;8.570;2023-04-22T21:00:29;97244.34;;;13.67;78.08
20987;BME280;10652;50.306;8.570;2023-04-22T21:04:31;97246.53;;;13.73;79.96
20987;BME280;10652;50.306;8.570;2023-04-22T21:08:35;97240.41;;;13.72;79.36
20987;BME280;10652;50.306;8.570;2023-04-22T21:12:37;97247.59;;;13.70;79.77
20987;BME280;10652;50.306;8.570;2023-04-22T21:16:41;97242.75;;;13.64;80.13
20987;BME280;10652;50.306;8.570;2023-04-22T21:20:46;97234.78;;;13.53;81.13
20987;BME280;10652;50.306;8.570;2023-04-22T21:24:52;97244.78;;;13.48;82.31
20987;BME280;10652;50.306;8.570;2023-04-22T21:28:55;97242.16;;;13.48;82.63
20987;BME280;10652;50.306;8.570;2023-04-22T21:32:57;97250.25;;;13.45;83.26
20987;BME280;10652;50.306;8.570;2023-04-22T21:36:59;97249.56;;;13.43;83.46